• Join FlightAware (Why Join?)
  • Login
  • US Flag 
07:22AM EST


 

Airport Tracker/Info


-or-


 

Live Flight TrackerFlight Track Log ✈ EJA122 ✈ 19-Jul-2013 ✈ KCOE - KCRQ

Flight Track Log - Related Links

Times and Time Zones

All times are in EDT time to prevent confusion due to time zone crossing. See the EJA122 flight status page for this flight to view local times or setup timezone preferences in your user account.

Time Position Orientation Groundspeed Altitude Reporting Facility
EDT Latitude Longitude Course Direction KTS MPH feet Rate Location/Type
06:02PM 47.7644 -116.8669 250° West 197 227 3,400  Level Seattle Center
06:03PM 47.7422 -116.9558 250° West 237 273 6,000 2,340 Climbing Seattle Center
06:04PM 47.7144 -117.0586 248° West 269 310 8,300 2,160 Climbing Seattle Center
06:05PM 47.6817 -117.1753 247° West 286 329 10,400 1,980 Climbing Seattle Center
06:06PM 47.6389 -117.2764 238° Southwest 299 344 12,400 1,740 Climbing Seattle Center
06:07PM 47.5539 -117.2908 187° South 307 353 14,000 1,260 Climbing Seattle Center
06:08PM 47.4606 -117.3028 185° South 331 381 15,100 1,020 Climbing Seattle Center
06:11PM 47.1777 -117.2667 180° South  Level FlightAware Approximate
06:11PM 47.1678 -117.3400 180° South 361 415 18,300  Level Seattle Center
06:12PM 47.0686 -117.3519 185° South 360 414 19,400 1,080 Climbing Seattle Center
06:13PM 46.9689 -117.3650 185° South 360 414 20,600 1,080 Climbing Seattle Center
06:14PM 46.8678 -117.3769 185° South 363 418 21,700 1,140 Climbing Seattle Center
06:15PM 46.7456 -117.3936 185° South 367 422 23,000 1,200 Climbing Seattle Center
06:16PM 46.6425 -117.4081 185° South 365 420 24,200 1,020 Climbing Seattle Center
06:17PM 46.5439 -117.4211 185° South 367 422 25,200 1,020 Climbing Seattle Center
06:18PM 46.4422 -117.4361 186° South 367 422 26,300 1,080 Climbing Seattle Center
06:19PM 46.3417 -117.4492 185° South 365 420 27,400 1,020 Climbing Seattle Center
06:20PM 46.2408 -117.4642 186° South 364 419 28,500 1,080 Climbing Seattle Center
06:21PM 46.1422 -117.4772 185° South 360 414 29,700 1,080 Climbing Seattle Center
06:22PM 46.0433 -117.4906 185° South 357 411 30,800 1,020 Climbing Seattle Center
06:23PM 45.9433 -117.5036 185° South 360 414 31,900 1,140 Climbing Seattle Center
06:24PM 45.8256 -117.5194 185° South 357 411 33,200 960 Climbing Seattle Center
06:25PM 45.7239 -117.5322 185° South 365 420 33,900 600 Climbing Seattle Center
06:26PM 45.6183 -117.5461 185° South 376 433 34,500 480 Climbing Seattle Center
06:27PM 45.5122 -117.5611 186° South 383 441 35,000 600 Climbing Seattle Center
06:28PM 45.4050 -117.5742 185° South 387 445 35,800 780 Climbing Seattle Center
06:29PM 45.3011 -117.6019 191° South 380 437 36,600 720 Climbing Seattle Center
06:30PM 45.1994 -117.6328 192° South 375 432 37,300 720 Climbing Seattle Center
06:31PM 45.0831 -117.6678 192° South 374 430 38,100 540 Climbing Seattle Center
06:32PM 44.9869 -117.6967 192° South 371 427 38,500 360 Climbing Seattle Center
06:34PM 44.8431 -117.7397 192° South 370 426 39,000 180 Climbing Salt Lake Center
06:35PM 44.7269 -117.7744 192° South 380 437 39,000  Level Salt Lake Center
06:36PM 44.6256 -117.8050 192° South 387 445 39,000  Level Salt Lake Center
06:37PM 44.5569 -117.8267 193° South 391 450 39,000  Level Seattle Center
06:38PM 44.4531 -117.8561 191° South 397 457 39,000  Level Seattle Center
06:39PM 44.3308 -117.8936 192° South 402 463 39,000  Level Seattle Center
06:40PM 44.2231 -117.9250 192° South 410 472 39,000  Level Seattle Center
06:41PM 44.1158 -117.9567 192° South 413 475 39,000  Level Seattle Center
06:41PM 44.0433 -117.9772 192° South 413 475 39,000  Level Salt Lake Center
06:42PM 43.9361 -118.0081 192° South 412 474 39,000  Level Salt Lake Center
06:43PM 43.8272 -118.0381 191° South 415 478 39,000  Level Salt Lake Center
06:44PM 43.7036 -118.0747 192° South 408 470 39,000  Level Salt Lake Center
06:45PM 43.5972 -118.1056 192° South 408 470 39,000  Level Salt Lake Center
06:46PM 43.4731 -118.1422 192° South 408 470 39,000  Level Salt Lake Center
06:47PM 43.3661 -118.1717 191° South 409 471 39,000  Level Salt Lake Center
06:48PM 43.2425 -118.2069 192° South 406 467 39,000  Level Salt Lake Center
06:49PM 43.1350 -118.2381 192° South 407 468 39,000  Level Salt Lake Center
06:51PM 42.9085 -118.3046 192° South  Level FlightAware Approximate
06:52PM 42.8028 -118.3333 191° South 407 468 39,000  Level Salt Lake Center
06:55PM 42.4316 -118.2872 175° South  Level Estimated
06:56PM 42.4419 -118.4342 175° South 411 473 39,000  Level Salt Lake Center
06:57PM 42.3364 -118.4631 191° South 405 466 39,000  Level Salt Lake Center
06:58PM 41.5267 -118.6867 191° South  Level FlightAware Approximate
06:58PM 42.2122 -118.4975 192° South 408 470 39,000  Level Salt Lake Center
06:59PM 42.1067 -118.5275 192° South 406 467 39,000  Level Salt Lake Center
07:00PM 41.9836 -118.5611 191° South 406 467 39,000  Level Salt Lake Center
07:01PM 41.8775 -118.5903 192° South 407 468 39,000  Level Salt Lake Center
07:02PM 41.7556 -118.6225 191° South 401 461 39,000  Level Salt Lake Center
07:03PM 41.6500 -118.6500 191° South 402 463 39,000  Level Salt Lake Center
07:04PM 41.5264 -118.6836 192° South 404 465 39,000  Level Salt Lake Center
07:05PM 41.4217 -118.7131 192° South 403 464 39,000  Level Salt Lake Center
07:06PM 41.2969 -118.7453 191° South 407 468 39,000  Level Salt Lake Center
07:07PM 41.1908 -118.7742 192° South 408 470 39,000  Level Salt Lake Center
07:08PM 41.0833 -118.8042 192° South 410 472 39,000  Level Salt Lake Center
07:09PM 40.9581 -118.8353 191° South 410 472 39,000  Level Salt Lake Center
07:10PM 40.8522 -118.8631 191° South 408 470 39,000  Level Salt Lake Center
07:11PM 40.7278 -118.8958 191° South 407 468 39,000  Level Salt Lake Center
07:12PM 40.6206 -118.9228 191° South 409 471 39,000  Level Salt Lake Center
07:13PM 40.5047 -118.9011 172° South 415 478 39,000  Level Oakland Center
07:14PM 40.3642 -118.8686 170° South 426 490 39,000  Level Oakland Center
07:15PM 40.2706 -118.8469 170° South 424 488 39,000  Level Salt Lake Center
07:16PM 40.1306 -118.8133 170° South 425 489 39,000  Level Salt Lake Center
07:17PM 40.0144 -118.7861 170° South 423 487 39,000  Level Salt Lake Center
07:18PM 39.8989 -118.7575 169° South 422 486 39,000  Level Oakland Center
07:19PM 39.7819 -118.7306 170° South 425 489 39,000  Level Oakland Center
07:20PM 39.6658 -118.7025 169° South 424 488 39,000  Level Oakland Center
07:21PM 39.5500 -118.6736 169° South 422 486 39,000  Level Oakland Center
07:22PM 39.4169 -118.6442 170° South 433 498 39,000  Level Oakland Center
07:23PM 39.3019 -118.6164 169° South 427 491 39,000  Level Oakland Center
07:24PM 39.1881 -118.5889 169° South 426 490 39,000  Level Oakland Center
07:25PM 39.0731 -118.5622 170° South 420 483 39,000  Level Oakland Center
07:26PM 38.9569 -118.5353 170° South 422 486 39,000  Level Oakland Center
07:27PM 38.8186 -118.5039 170° South 420 483 39,000  Level Oakland Center
07:29PM 38.7017 -118.4767 170° South 425 489 39,000  Level Oakland Center
07:30PM 38.5875 -118.4517 170° South 418 481 39,000  Level Oakland Center
07:31PM 38.4717 -118.4247 170° South 421 484 39,000  Level Oakland Center
07:32PM 38.3567 -118.3978 170° South 420 483 39,000  Level Oakland Center
07:33PM 38.2411 -118.3714 170° South 421 484 39,000  Level Oakland Center
07:34PM 38.1258 -118.3461 170° South 420 483 39,000  Level Oakland Center
07:35PM 38.0097 -118.3189 170° South 423 487 39,000  Level Oakland Center
07:36PM 37.8725 -118.2867 169° South 421 484 39,000  Level Oakland Center
07:37PM 37.7594 -118.2614 170° South 416 479 39,000  Level Oakland Center
07:38PM 37.6436 -118.2350 170° South 421 484 39,000  Level Oakland Center
07:39PM 37.5278 -118.2103 170° South 422 486 39,000  Level Oakland Center
07:40PM 37.4122 -118.1833 170° South 422 486 39,000  Level Oakland Center
07:41PM 37.2969 -118.1575 170° South 422 486 39,000  Level Oakland Center
07:42PM 37.1814 -118.1308 170° South 422 486 39,000  Level Oakland Center
07:43PM 37.0417 -118.0997 170° South 425 489 39,000  Level Oakland Center
07:44PM 36.9247 -118.0844 174° South 424 488 39,000  Level Oakland Center
07:45PM 36.8092 -118.1014 187° South 420 483 39,000  Level Oakland Center
07:46PM 36.6919 -118.1153 185° South 421 484 39,000  Level Oakland Center
07:47PM 36.5689 -118.1294 185° South 421 484 39,000  Level Los Angeles Center
07:48PM 36.4278 -118.1464 186° South 424 488 39,000  Level Los Angeles Center
07:49PM 36.3103 -118.1603 185° South 425 489 39,000  Level Los Angeles Center
07:50PM 36.1931 -118.1750 186° South 424 488 39,000 -420 Level Los Angeles Center
07:51PM 36.0747 -118.1881 185° South 427 491 38,200 -1,080 Descending Los Angeles Center
07:52PM 35.9561 -118.2036 186° South 429 494 36,800 -1,380 Descending Los Angeles Center
07:53PM 35.8122 -118.2206 185° South 434 499 35,400 -900 Descending Los Angeles Center
07:54PM 35.6936 -118.2325 185° South 430 495 35,000 -180 Descending Los Angeles Center
07:56PM 35.5492 -118.2500 186° South 437 503 35,000  Level Los Angeles Center
07:57PM 35.4272 -118.2642 185° South 440 506 35,000  Level Los Angeles Center
07:58PM 35.3058 -118.2789 186° South 443 510 35,000  Level Los Angeles Center
07:59PM 35.1575 -118.2961 185° South 448 516 35,000  Level Los Angeles Center
08:00PM 35.0347 -118.3108 186° South 447 514 35,000  Level Los Angeles Center
08:01PM 34.9097 -118.3247 185° South 453 521 35,000  Level Los Angeles Center
08:02PM 34.7864 -118.3381 185° South 449 517 35,000  Level Los Angeles Center
08:03PM 34.6631 -118.3531 186° South 447 514 35,000 -960 Level Los Angeles Center
08:04PM 34.5306 -118.3664 185° South 442 509 33,100 -2,220 Descending Los Angeles Center
08:05PM 34.4036 -118.3822 186° South 453 521 30,500 -2,820 Descending Los Angeles Center
08:06PM 34.2547 -118.3983 185° South 449 517 27,300 -2,820 Descending Los Angeles Center
08:07PM 34.1314 -118.4119 185° South 447 514 24,700 -1,680 Descending Los Angeles Center
08:08PM 34.0061 -118.4253 185° South 452 520 23,800 -1,680 Descending Los Angeles Center
08:09PM 33.8711 -118.4544 190° South 456 525 21,300 -1,860 Descending Los Angeles Center
08:10PM 33.7561 -118.4942 196° South 407 468 20,000 -720 Descending Los Angeles Center
08:11PM 33.6506 -118.5294 196° South 401 461 19,900 -1,020 Descending Los Angeles Center
08:12PM 33.5386 -118.5317 181° South 407 468 17,900 -1,980 Descending Los Angeles Center
08:13PM 33.4422 -118.4767 155° Southeast 390 449 15,900 -1,740 Descending Los Angeles Center
08:14PM 33.3686 -118.3664 129° Southeast 367 422 14,400 -1,440 Descending Los Angeles Center
08:15PM 33.3514 -118.2483 100° East 364 419 13,000 -1,140 Descending Los Angeles Center
08:16PM 33.3394 -118.1500 98° East 304 350 12,100 -960 Descending Los Angeles Center
08:17PM 33.3272 -118.0575 99° East 286 329 11,000 -1,200 Descending Los Angeles Center
08:18PM 33.3133 -117.9608 100° East 292 336 9,700 -1,260 Descending Los Angeles Center
08:19PM 33.2994 -117.8456 98° East 293 337 8,400 -1,140 Descending Los Angeles Center
08:21PM 33.2889 -117.7692 99° East 292 336 7,400 -1,200 Descending Los Angeles Center
08:22PM 33.2731 -117.6550 99° East 291 335 6,000 -1,380 Descending Los Angeles Center
08:22PM 33.2667 -117.5833 96° East 278 320 5,000 -600 Descending Southern California TRACON
08:23PM 33.2500 -117.4833 101° East 271 312 5,000  Level Southern California TRACON
08:24PM 33.2333 -117.4000 103° East 266 306 5,100  Climbing Southern California TRACON
08:25PM 33.2333 -117.3167 90° East 269 310 5,100  Level Southern California TRACON
08:26PM 33.2333 -117.2333 90° East 261 300 5,100 -300 Level Southern California TRACON
08:27PM 33.2167 -117.1500 103° East 244 281 4,600 -300 Descending Southern California TRACON
08:28PM 33.2167 -117.0833 90° East 203 234 4,500 -600 Descending Southern California TRACON
08:29PM 33.1500 -117.0833 180° South 228 262 3,400 -1,140 Descending Southern California TRACON
08:30PM 33.1500 -117.1500 270° West 204 235 2,300 -1,020 Descending Southern California TRACON
08:31PM 33.1333 -117.2167 253° West 162 186 1,400 -840 Descending Southern California TRACON
08:32PM 33.1333 -117.2500 270° West 123 142 700 -720 Descending Southern California TRACON